sensor_id;sensor_type;location;lat;lon;timestamp;P1;durP1;ratioP1;P2;durP2;ratioP2
70199;SDS011;57587;55.688;37.600;2023-02-23T00:01:53;15.43;;;7.30;;
70199;SDS011;57587;55.688;37.600;2023-02-23T00:04:21;13.90;;;6.35;;
70199;SDS011;57587;55.688;37.600;2023-02-23T00:06:49;17.90;;;6.93;;
70199;SDS011;57587;55.688;37.600;2023-02-23T00:09:17;14.30;;;7.20;;
70199;SDS011;57587;55.688;37.600;2023-02-23T00:11:51;17.65;;;8.02;;
70199;SDS011;57587;55.688;37.600;2023-02-23T00:14:22;13.75;;;7.38;;
70199;SDS011;57587;55.688;37.600;2023-02-23T00:16:53;14.90;;;6.82;;
70199;SDS011;57587;55.688;37.600;2023-02-23T00:19:21;16.60;;;6.70;;
70199;SDS011;57587;55.688;37.600;2023-02-23T00:21:51;17.25;;;6.88;;
70199;SDS011;57587;55.688;37.600;2023-02-23T00:24:19;15.13;;;6.95;;
70199;SDS011;57587;55.688;37.600;2023-02-23T00:26:47;15.82;;;6.70;;
70199;SDS011;57587;55.688;37.600;2023-02-23T00:29:18;17.48;;;6.70;;
70199;SDS011;57587;55.688;37.600;2023-02-23T00:31:50;17.00;;;6.82;;
70199;SDS011;57587;55.688;37.600;2023-02-23T00:34:18;14.38;;;6.78;;
70199;SDS011;57587;55.688;37.600;2023-02-23T00:36:50;15.85;;;7.18;;
70199;SDS011;57587;55.688;37.600;2023-02-23T00:39:22;14.95;;;6.85;;
70199;SDS011;57587;55.688;37.600;2023-02-23T00:41:55;16.83;;;7.10;;
70199;SDS011;57587;55.688;37.600;2023-02-23T00:44:28;14.88;;;6.75;;
70199;SDS011;57587;55.688;37.600;2023-02-23T00:46:55;14.98;;;6.70;;
70199;SDS011;57587;55.688;37.600;2023-02-23T00:49:23;15.55;;;7.30;;
70199;SDS011;57587;55.688;37.600;2023-02-23T00:51:50;14.23;;;6.23;;
70199;SDS011;57587;55.688;37.600;2023-02-23T00:54:20;15.80;;;7.38;;
70199;SDS011;57587;55.688;37.600;2023-02-23T00:56:47;13.60;;;6.63;;
70199;SDS011;57587;55.688;37.600;2023-02-23T00:59:15;15.38;;;6.70;;
70199;SDS011;57587;55.688;37.600;2023-02-23T01:01:43;18.13;;;7.70;;
70199;SDS011;57587;55.688;37.600;2023-02-23T01:04:11;14.23;;;6.80;;
70199;SDS011;57587;55.688;37.600;2023-02-23T01:06:39;16.38;;;6.93;;
70199;SDS011;57587;55.688;37.600;2023-02-23T01:09:08;13.02;;;6.05;;
70199;SDS011;57587;55.688;37.600;2023-02-23T01:11:37;18.57;;;7.00;;
70199;SDS011;57587;55.688;37.600;2023-02-23T01:14:04;14.98;;;6.88;;
70199;SDS011;57587;55.688;37.600;2023-02-23T01:16:33;16.02;;;7.35;;
70199;SDS011;57587;55.688;37.600;2023-02-23T01:19:02;11.13;;;6.22;;
70199;SDS011;57587;55.688;37.600;2023-02-23T01:21:31;13.67;;;6.93;;
70199;SDS011;57587;55.688;37.600;2023-02-23T01:24:00;14.90;;;7.40;;
70199;SDS011;57587;55.688;37.600;2023-02-23T01:26:28;14.30;;;6.93;;
70199;SDS011;57587;55.688;37.600;2023-02-23T01:29:10;16.42;;;7.18;;
70199;SDS011;57587;55.688;37.600;2023-02-23T01:31:43;12.07;;;6.10;;
70199;SDS011;57587;55.688;37.600;2023-02-23T01:34:16;17.85;;;6.72;;
70199;SDS011;57587;55.688;37.600;2023-02-23T01:36:44;15.05;;;7.60;;
70199;SDS011;57587;55.688;37.600;2023-02-23T01:39:15;14.18;;;7.20;;
70199;SDS011;57587;55.688;37.600;2023-02-23T01:41:45;17.45;;;7.97;;
70199;SDS011;57587;55.688;37.600;2023-02-23T01:46:41;14.10;;;7.25;;
70199;SDS011;57587;55.688;37.600;2023-02-23T01:49:12;12.43;;;7.32;;
70199;SDS011;57587;55.688;37.600;2023-02-23T01:51:47;15.02;;;8.15;;
70199;SDS011;57587;55.688;37.600;2023-02-23T01:54:19;14.80;;;7.50;;
70199;SDS011;57587;55.688;37.600;2023-02-23T01:56:50;14.52;;;7.05;;
70199;SDS011;57587;55.688;37.600;2023-02-23T01:59:26;19.70;;;7.10;;
70199;SDS011;57587;55.688;37.600;2023-02-23T02:02:22;16.75;;;7.50;;
70199;SDS011;57587;55.688;37.600;2023-02-23T02:04:59;14.77;;;8.05;;
70199;SDS011;57587;55.688;37.600;2023-02-23T02:07:30;16.50;;;6.68;;
70199;SDS011;57587;55.688;37.600;2023-02-23T02:10:01;19.40;;;8.40;;
70199;SDS011;57587;55.688;37.600;2023-02-23T02:12:39;21.43;;;7.10;;
70199;SDS011;57587;55.688;37.600;2023-02-23T02:15:10;14.25;;;7.18;;
70199;SDS011;57587;55.688;37.600;2023-02-23T02:37:06;15.40;;;6.77;;
70199;SDS011;57587;55.688;37.600;2023-02-23T02:39:42;15.05;;;7.90;;
70199;SDS011;57587;55.688;37.600;2023-02-23T02:44:43;16.05;;;7.13;;
70199;SDS011;57587;55.688;37.600;2023-02-23T02:47:27;17.08;;;8.45;;
70199;SDS011;57587;55.688;37.600;2023-02-23T02:52:57;13.80;;;7.57;;
70199;SDS011;57587;55.688;37.600;2023-02-23T02:55:29;17.17;;;7.07;;
70199;SDS011;57587;55.688;37.600;2023-02-23T02:58:01;13.05;;;7.45;;
70199;SDS011;57587;55.688;37.600;2023-02-23T03:00:35;14.40;;;6.90;;
70199;SDS011;57587;55.688;37.600;2023-02-23T03:03:32;16.83;;;7.22;;
70199;SDS011;57587;55.688;37.600;2023-02-23T03:06:19;17.75;;;8.10;;
70199;SDS011;57587;55.688;37.600;2023-02-23T03:12:14;13.60;;;8.27;;
70199;SDS011;57587;55.688;37.600;2023-02-23T03:21:26;13.48;;;6.53;;
70199;SDS011;57587;55.688;37.600;2023-02-23T03:25:01;16.88;;;7.10;;
70199;SDS011;57587;55.688;37.600;2023-02-23T03:33:46;14.90;;;7.18;;
70199;SDS011;57587;55.688;37.600;2023-02-23T03:36:45;14.82;;;6.70;;
70199;SDS011;57587;55.688;37.600;2023-02-23T03:39:41;11.87;;;6.23;;
70199;SDS011;57587;55.688;37.600;2023-02-23T03:42:36;16.08;;;7.10;;
70199;SDS011;57587;55.688;37.600;2023-02-23T03:45:24;12.85;;;6.57;;
70199;SDS011;57587;55.688;37.600;2023-02-23T03:48:12;11.93;;;7.07;;
70199;SDS011;57587;55.688;37.600;2023-02-23T03:51:02;13.35;;;7.13;;
70199;SDS011;57587;55.688;37.600;2023-02-23T03:54:11;14.10;;;7.32;;
70199;SDS011;57587;55.688;37.600;2023-02-23T03:57:04;15.68;;;6.57;;
70199;SDS011;57587;55.688;37.600;2023-02-23T03:59:56;13.95;;;7.20;;
70199;SDS011;57587;55.688;37.600;2023-02-23T04:02:47;12.52;;;5.63;;
70199;SDS011;57587;55.688;37.600;2023-02-23T04:05:37;16.60;;;7.35;;
70199;SDS011;57587;55.688;37.600;2023-02-23T04:08:28;16.00;;;6.47;;
70199;SDS011;57587;55.688;37.600;2023-02-23T04:11:29;12.07;;;6.57;;
70199;SDS011;57587;55.688;37.600;2023-02-23T04:14:18;14.32;;;6.57;;
70199;SDS011;57587;55.688;37.600;2023-02-23T04:16:55;12.82;;;6.60;;
70199;SDS011;57587;55.688;37.600;2023-02-23T04:19:26;17.20;;;7.07;;
70199;SDS011;57587;55.688;37.600;2023-02-23T04:21:55;16.53;;;7.23;;
70199;SDS011;57587;55.688;37.600;2023-02-23T04:24:22;15.68;;;7.13;;
70199;SDS011;57587;55.688;37.600;2023-02-23T04:26:49;14.63;;;7.28;;
70199;SDS011;57587;55.688;37.600;2023-02-23T04:29:16;14.75;;;7.35;;
70199;SDS011;57587;55.688;37.600;2023-02-23T04:31:43;14.57;;;6.88;;
70199;SDS011;57587;55.688;37.600;2023-02-23T04:34:10;15.10;;;7.90;;
70199;SDS011;57587;55.688;37.600;2023-02-23T04:36:37;16.50;;;7.18;;
70199;SDS011;57587;55.688;37.600;2023-02-23T04:39:04;16.15;;;6.55;;
70199;SDS011;57587;55.688;37.600;2023-02-23T04:41:31;15.77;;;7.40;;
70199;SDS011;57587;55.688;37.600;2023-02-23T04:43:58;15.40;;;6.95;;
70199;SDS011;57587;55.688;37.600;2023-02-23T04:46:25;17.05;;;6.28;;
70199;SDS011;57587;55.688;37.600;2023-02-23T04:48:52;14.70;;;7.35;;
70199;SDS011;57587;55.688;37.600;2023-02-23T04:51:19;17.38;;;6.65;;
70199;SDS011;57587;55.688;37.600;2023-02-23T04:53:46;18.15;;;7.40;;
70199;SDS011;57587;55.688;37.600;2023-02-23T04:56:13;14.73;;;6.65;;
70199;SDS011;57587;55.688;37.600;2023-02-23T04:58:40;14.60;;;6.47;;
70199;SDS011;57587;55.688;37.600;2023-02-23T05:01:08;16.73;;;7.43;;
70199;SDS011;57587;55.688;37.600;2023-02-23T05:03:35;17.50;;;7.22;;
70199;SDS011;57587;55.688;37.600;2023-02-23T05:06:02;15.05;;;7.47;;
70199;SDS011;57587;55.688;37.600;2023-02-23T05:08:29;14.77;;;7.38;;
70199;SDS011;57587;55.688;37.600;2023-02-23T05:10:56;12.97;;;7.23;;
70199;SDS011;57587;55.688;37.600;2023-02-23T05:13:23;15.32;;;8.02;;
70199;SDS011;57587;55.688;37.600;2023-02-23T05:15:54;15.00;;;6.88;;
70199;SDS011;57587;55.688;37.600;2023-02-23T05:18:23;15.93;;;8.13;;
70199;SDS011;57587;55.688;37.600;2023-02-23T05:20:52;17.27;;;8.70;;
70199;SDS011;57587;55.688;37.600;2023-02-23T05:23:19;16.88;;;7.95;;
70199;SDS011;57587;55.688;37.600;2023-02-23T05:25:47;15.77;;;7.50;;
70199;SDS011;57587;55.688;37.600;2023-02-23T05:28:14;22.13;;;7.90;;
70199;SDS011;57587;55.688;37.600;2023-02-23T05:30:41;15.68;;;8.02;;
70199;SDS011;57587;55.688;37.600;2023-02-23T05:33:09;14.88;;;7.63;;
70199;SDS011;57587;55.688;37.600;2023-02-23T05:35:39;16.00;;;7.30;;
70199;SDS011;57587;55.688;37.600;2023-02-23T05:38:06;16.07;;;8.10;;
70199;SDS011;57587;55.688;37.600;2023-02-23T05:40:34;16.00;;;7.82;;
70199;SDS011;57587;55.688;37.600;2023-02-23T05:43:02;16.33;;;7.65;;
70199;SDS011;57587;55.688;37.600;2023-02-23T05:45:29;20.05;;;8.13;;
70199;SDS011;57587;55.688;37.600;2023-02-23T05:47:56;15.68;;;7.30;;
70199;SDS011;57587;55.688;37.600;2023-02-23T05:50:23;15.25;;;7.70;;
70199;SDS011;57587;55.688;37.600;2023-02-23T05:52:51;15.05;;;7.15;;
70199;SDS011;57587;55.688;37.600;2023-02-23T05:55:19;16.08;;;7.80;;
70199;SDS011;57587;55.688;37.600;2023-02-23T05:57:46;17.42;;;7.47;;
70199;SDS011;57587;55.688;37.600;2023-02-23T06:00:13;16.10;;;7.00;;
70199;SDS011;57587;55.688;37.600;2023-02-23T06:02:40;14.95;;;7.40;;
70199;SDS011;57587;55.688;37.600;2023-02-23T06:05:08;15.20;;;7.28;;
70199;SDS011;57587;55.688;37.600;2023-02-23T06:07:36;15.80;;;7.63;;
70199;SDS011;57587;55.688;37.600;2023-02-23T06:10:03;17.50;;;8.10;;
70199;SDS011;57587;55.688;37.600;2023-02-23T06:12:31;13.40;;;6.87;;
70199;SDS011;57587;55.688;37.600;2023-02-23T06:14:58;14.32;;;6.90;;
70199;SDS011;57587;55.688;37.600;2023-02-23T06:17:25;15.02;;;7.43;;
70199;SDS011;57587;55.688;37.600;2023-02-23T06:19:52;15.32;;;6.90;;
70199;SDS011;57587;55.688;37.600;2023-02-23T06:22:19;13.98;;;7.30;;
70199;SDS011;57587;55.688;37.600;2023-02-23T06:24:46;16.40;;;6.77;;
70199;SDS011;57587;55.688;37.600;2023-02-23T06:27:15;19.55;;;8.48;;
70199;SDS011;57587;55.688;37.600;2023-02-23T06:29:42;13.55;;;7.47;;
70199;SDS011;57587;55.688;37.600;2023-02-23T06:32:09;11.02;;;6.60;;
70199;SDS011;57587;55.688;37.600;2023-02-23T06:34:43;12.85;;;6.40;;
70199;SDS011;57587;55.688;37.600;2023-02-23T06:37:10;15.83;;;7.80;;
70199;SDS011;57587;55.688;37.600;2023-02-23T06:39:37;16.83;;;7.72;;
70199;SDS011;57587;55.688;37.600;2023-02-23T06:42:05;15.23;;;7.22;;
70199;SDS011;57587;55.688;37.600;2023-02-23T06:44:32;15.77;;;8.27;;
70199;SDS011;57587;55.688;37.600;2023-02-23T06:47:02;17.15;;;8.32;;
70199;SDS011;57587;55.688;37.600;2023-02-23T06:49:31;14.77;;;7.67;;
70199;SDS011;57587;55.688;37.600;2023-02-23T06:51:58;15.88;;;8.65;;
70199;SDS011;57587;55.688;37.600;2023-02-23T06:54:26;14.50;;;7.68;;
70199;SDS011;57587;55.688;37.600;2023-02-23T06:56:52;18.55;;;7.65;;
70199;SDS011;57587;55.688;37.600;2023-02-23T06:59:21;15.40;;;8.57;;
70199;SDS011;57587;55.688;37.600;2023-02-23T07:01:49;14.60;;;7.77;;
70199;SDS011;57587;55.688;37.600;2023-02-23T07:04:17;17.23;;;8.48;;
70199;SDS011;57587;55.688;37.600;2023-02-23T07:06:44;14.98;;;9.55;;
70199;SDS011;57587;55.688;37.600;2023-02-23T07:09:11;16.35;;;8.50;;
70199;SDS011;57587;55.688;37.600;2023-02-23T07:11:38;16.40;;;8.73;;
70199;SDS011;57587;55.688;37.600;2023-02-23T07:14:08;19.53;;;8.30;;
70199;SDS011;57587;55.688;37.600;2023-02-23T07:16:43;19.05;;;7.97;;
70199;SDS011;57587;55.688;37.600;2023-02-23T07:19:10;13.80;;;7.18;;
70199;SDS011;57587;55.688;37.600;2023-02-23T07:21:37;16.25;;;7.93;;
70199;SDS011;57587;55.688;37.600;2023-02-23T07:24:05;15.80;;;7.82;;
70199;SDS011;57587;55.688;37.600;2023-02-23T07:26:32;13.87;;;7.60;;
70199;SDS011;57587;55.688;37.600;2023-02-23T07:28:59;13.50;;;7.72;;
70199;SDS011;57587;55.688;37.600;2023-02-23T07:31:27;15.98;;;7.85;;
70199;SDS011;57587;55.688;37.600;2023-02-23T07:33:54;16.40;;;8.35;;
70199;SDS011;57587;55.688;37.600;2023-02-23T07:36:22;16.00;;;7.82;;
70199;SDS011;57587;55.688;37.600;2023-02-23T07:38:50;16.90;;;9.00;;
70199;SDS011;57587;55.688;37.600;2023-02-23T07:41:17;18.00;;;9.98;;
70199;SDS011;57587;55.688;37.600;2023-02-23T07:43:45;14.75;;;7.95;;
70199;SDS011;57587;55.688;37.600;2023-02-23T07:46:12;14.88;;;9.35;;
70199;SDS011;57587;55.688;37.600;2023-02-23T07:48:41;18.67;;;8.52;;
70199;SDS011;57587;55.688;37.600;2023-02-23T07:51:11;17.37;;;7.60;;
70199;SDS011;57587;55.688;37.600;2023-02-23T07:53:42;16.17;;;8.35;;
70199;SDS011;57587;55.688;37.600;2023-02-23T07:56:10;16.85;;;8.13;;
70199;SDS011;57587;55.688;37.600;2023-02-23T07:58:38;17.33;;;11.30;;
70199;SDS011;57587;55.688;37.600;2023-02-23T08:01:07;15.60;;;8.15;;
70199;SDS011;57587;55.688;37.600;2023-02-23T08:03:35;14.23;;;8.27;;
70199;SDS011;57587;55.688;37.600;2023-02-23T08:06:02;14.00;;;8.55;;
70199;SDS011;57587;55.688;37.600;2023-02-23T08:08:30;15.60;;;8.60;;
70199;SDS011;57587;55.688;37.600;2023-02-23T08:11:00;17.20;;;8.80;;
70199;SDS011;57587;55.688;37.600;2023-02-23T08:13:29;15.32;;;9.63;;
70199;SDS011;57587;55.688;37.600;2023-02-23T08:15:57;14.90;;;8.23;;
70199;SDS011;57587;55.688;37.600;2023-02-23T08:18:25;15.95;;;10.20;;
70199;SDS011;57587;55.688;37.600;2023-02-23T08:20:57;16.02;;;8.75;;
70199;SDS011;57587;55.688;37.600;2023-02-23T08:23:28;17.70;;;9.63;;
70199;SDS011;57587;55.688;37.600;2023-02-23T08:25:56;14.25;;;9.63;;
70199;SDS011;57587;55.688;37.600;2023-02-23T08:28:25;13.27;;;8.23;;
70199;SDS011;57587;55.688;37.600;2023-02-23T08:30:53;14.50;;;10.70;;
70199;SDS011;57587;55.688;37.600;2023-02-23T08:33:20;16.50;;;9.50;;
70199;SDS011;57587;55.688;37.600;2023-02-23T08:35:48;14.57;;;9.73;;
70199;SDS011;57587;55.688;37.600;2023-02-23T08:38:15;14.27;;;8.13;;
70199;SDS011;57587;55.688;37.600;2023-02-23T08:40:43;13.43;;;8.70;;
70199;SDS011;57587;55.688;37.600;2023-02-23T08:43:11;12.35;;;10.45;;
70199;SDS011;57587;55.688;37.600;2023-02-23T08:45:38;13.20;;;8.75;;
70199;SDS011;57587;55.688;37.600;2023-02-23T08:48:05;14.93;;;8.60;;
70199;SDS011;57587;55.688;37.600;2023-02-23T08:50:34;16.40;;;8.25;;
70199;SDS011;57587;55.688;37.600;2023-02-23T08:53:01;14.37;;;7.53;;
70199;SDS011;57587;55.688;37.600;2023-02-23T08:55:29;16.02;;;9.52;;
70199;SDS011;57587;55.688;37.600;2023-02-23T08:57:58;16.80;;;11.52;;
70199;SDS011;57587;55.688;37.600;2023-02-23T09:00:25;15.50;;;9.90;;
70199;SDS011;57587;55.688;37.600;2023-02-23T09:02:52;14.52;;;10.40;;
70199;SDS011;57587;55.688;37.600;2023-02-23T09:05:19;14.50;;;10.70;;
70199;SDS011;57587;55.688;37.600;2023-02-23T09:07:46;12.85;;;11.02;;
70199;SDS011;57587;55.688;37.600;2023-02-23T09:10:16;14.30;;;10.90;;
70199;SDS011;57587;55.688;37.600;2023-02-23T09:12:45;16.90;;;10.20;;
70199;SDS011;57587;55.688;37.600;2023-02-23T09:15:12;15.10;;;9.75;;
70199;SDS011;57587;55.688;37.600;2023-02-23T09:17:39;15.13;;;10.70;;
70199;SDS011;57587;55.688;37.600;2023-02-23T09:20:11;14.75;;;9.88;;
70199;SDS011;57587;55.688;37.600;2023-02-23T09:22:41;14.18;;;10.23;;
70199;SDS011;57587;55.688;37.600;2023-02-23T09:25:15;15.15;;;10.50;;
70199;SDS011;57587;55.688;37.600;2023-02-23T09:27:52;13.77;;;9.90;;
70199;SDS011;57587;55.688;37.600;2023-02-23T09:30:22;14.73;;;9.93;;
70199;SDS011;57587;55.688;37.600;2023-02-23T09:32:49;17.52;;;10.18;;
70199;SDS011;57587;55.688;37.600;2023-02-23T09:35:17;15.10;;;10.27;;
70199;SDS011;57587;55.688;37.600;2023-02-23T09:37:47;13.18;;;10.00;;
70199;SDS011;57587;55.688;37.600;2023-02-23T09:40:16;13.45;;;9.52;;
70199;SDS011;57587;55.688;37.600;2023-02-23T09:45:52;14.45;;;10.43;;
70199;SDS011;57587;55.688;37.600;2023-02-23T09:48:24;12.00;;;9.85;;
70199;SDS011;57587;55.688;37.600;2023-02-23T09:50:57;12.82;;;9.88;;
70199;SDS011;57587;55.688;37.600;2023-02-23T09:53:29;13.85;;;10.07;;
70199;SDS011;57587;55.688;37.600;2023-02-23T09:56:02;14.50;;;10.30;;
70199;SDS011;57587;55.688;37.600;2023-02-23T09:58:37;12.65;;;9.55;;
70199;SDS011;57587;55.688;37.600;2023-02-23T10:01:15;13.20;;;9.25;;
70199;SDS011;57587;55.688;37.600;2023-02-23T10:03:49;13.85;;;9.60;;
70199;SDS011;57587;55.688;37.600;2023-02-23T10:06:21;12.77;;;9.20;;
70199;SDS011;57587;55.688;37.600;2023-02-23T10:11:51;13.05;;;8.73;;
70199;SDS011;57587;55.688;37.600;2023-02-23T10:14:32;14.00;;;9.20;;
70199;SDS011;57587;55.688;37.600;2023-02-23T10:17:32;11.70;;;8.25;;
70199;SDS011;57587;55.688;37.600;2023-02-23T10:22:54;13.73;;;9.67;;
70199;SDS011;57587;55.688;37.600;2023-02-23T10:25:27;12.77;;;8.73;;
70199;SDS011;57587;55.688;37.600;2023-02-23T10:27:58;12.35;;;9.35;;
70199;SDS011;57587;55.688;37.600;2023-02-23T10:30:28;13.18;;;9.48;;
70199;SDS011;57587;55.688;37.600;2023-02-23T10:33:06;15.20;;;10.13;;
70199;SDS011;57587;55.688;37.600;2023-02-23T10:35:37;12.70;;;8.67;;
70199;SDS011;57587;55.688;37.600;2023-02-23T10:38:05;13.68;;;8.88;;
70199;SDS011;57587;55.688;37.600;2023-02-23T10:40:34;12.77;;;8.57;;
70199;SDS011;57587;55.688;37.600;2023-02-23T10:43:01;10.90;;;8.20;;
70199;SDS011;57587;55.688;37.600;2023-02-23T10:45:29;14.05;;;9.38;;
70199;SDS011;57587;55.688;37.600;2023-02-23T10:50:35;12.80;;;8.55;;
70199;SDS011;57587;55.688;37.600;2023-02-23T10:56:12;15.55;;;8.90;;
70199;SDS011;57587;55.688;37.600;2023-02-23T10:58:49;14.70;;;9.07;;
70199;SDS011;57587;55.688;37.600;2023-02-23T11:01:38;12.40;;;8.73;;
70199;SDS011;57587;55.688;37.600;2023-02-23T11:04:31;14.93;;;8.98;;
70199;SDS011;57587;55.688;37.600;2023-02-23T11:07:07;12.95;;;8.70;;
70199;SDS011;57587;55.688;37.600;2023-02-23T11:09:37;12.88;;;8.93;;
70199;SDS011;57587;55.688;37.600;2023-02-23T11:12:17;14.75;;;8.85;;
70199;SDS011;57587;55.688;37.600;2023-02-23T11:14:49;11.07;;;7.73;;
70199;SDS011;57587;55.688;37.600;2023-02-23T11:22:48;11.68;;;7.25;;
70199;SDS011;57587;55.688;37.600;2023-02-23T11:25:23;15.25;;;7.32;;
70199;SDS011;57587;55.688;37.600;2023-02-23T11:27:55;15.10;;;7.57;;
70199;SDS011;57587;55.688;37.600;2023-02-23T11:30:24;11.43;;;7.28;;
70199;SDS011;57587;55.688;37.600;2023-02-23T11:33:05;13.27;;;7.55;;
70199;SDS011;57587;55.688;37.600;2023-02-23T11:35:36;14.32;;;7.07;;
70199;SDS011;57587;55.688;37.600;2023-02-23T11:38:15;13.90;;;8.57;;
70199;SDS011;57587;55.688;37.600;2023-02-23T11:40:57;14.03;;;7.40;;
70199;SDS011;57587;55.688;37.600;2023-02-23T11:43:32;12.95;;;7.00;;
70199;SDS011;57587;55.688;37.600;2023-02-23T11:46:01;19.15;;;8.40;;
70199;SDS011;57587;55.688;37.600;2023-02-23T11:48:47;13.40;;;7.45;;
70199;SDS011;57587;55.688;37.600;2023-02-23T11:51:30;14.68;;;7.85;;
70199;SDS011;57587;55.688;37.600;2023-02-23T11:54:00;14.73;;;7.80;;
70199;SDS011;57587;55.688;37.600;2023-02-23T11:56:32;15.13;;;8.00;;
70199;SDS011;57587;55.688;37.600;2023-02-23T11:59:12;14.60;;;7.40;;
70199;SDS011;57587;55.688;37.600;2023-02-23T12:01:45;15.57;;;6.70;;
70199;SDS011;57587;55.688;37.600;2023-02-23T12:10:03;15.05;;;7.80;;
70199;SDS011;57587;55.688;37.600;2023-02-23T12:20:43;13.93;;;7.07;;
70199;SDS011;57587;55.688;37.600;2023-02-23T12:23:17;12.98;;;7.32;;
70199;SDS011;57587;55.688;37.600;2023-02-23T12:25:54;14.07;;;6.38;;
70199;SDS011;57587;55.688;37.600;2023-02-23T12:28:32;14.20;;;6.80;;
70199;SDS011;57587;55.688;37.600;2023-02-23T12:33:54;15.00;;;6.93;;
70199;SDS011;57587;55.688;37.600;2023-02-23T12:36:38;11.05;;;5.95;;
70199;SDS011;57587;55.688;37.600;2023-02-23T12:45:27;12.25;;;6.75;;
70199;SDS011;57587;55.688;37.600;2023-02-23T12:50:44;11.93;;;5.80;;
70199;SDS011;57587;55.688;37.600;2023-02-23T12:53:33;14.88;;;6.68;;
70199;SDS011;57587;55.688;37.600;2023-02-23T13:02:45;13.63;;;6.23;;
70199;SDS011;57587;55.688;37.600;2023-02-23T13:08:10;12.85;;;7.15;;
70199;SDS011;57587;55.688;37.600;2023-02-23T13:24:38;10.95;;;5.03;;
70199;SDS011;57587;55.688;37.600;2023-02-23T13:27:17;14.05;;;6.25;;
70199;SDS011;57587;55.688;37.600;2023-02-23T13:29:52;13.20;;;5.70;;
70199;SDS011;57587;55.688;37.600;2023-02-23T13:32:23;11.95;;;5.63;;
70199;SDS011;57587;55.688;37.600;2023-02-23T13:34:58;11.82;;;6.28;;
70199;SDS011;57587;55.688;37.600;2023-02-23T13:40:22;10.48;;;5.20;;
70199;SDS011;57587;55.688;37.600;2023-02-23T13:45:51;10.40;;;5.03;;
70199;SDS011;57587;55.688;37.600;2023-02-23T13:51:42;13.27;;;5.45;;
70199;SDS011;57587;55.688;37.600;2023-02-23T13:56:50;14.07;;;6.27;;
70199;SDS011;57587;55.688;37.600;2023-02-23T13:59:28;12.93;;;5.75;;
70199;SDS011;57587;55.688;37.600;2023-02-23T14:02:00;12.65;;;5.80;;
70199;SDS011;57587;55.688;37.600;2023-02-23T14:04:35;11.05;;;5.97;;
70199;SDS011;57587;55.688;37.600;2023-02-23T14:12:23;10.60;;;5.90;;
70199;SDS011;57587;55.688;37.600;2023-02-23T14:14:50;11.48;;;5.93;;
70199;SDS011;57587;55.688;37.600;2023-02-23T14:28:32;13.30;;;5.88;;
70199;SDS011;57587;55.688;37.600;2023-02-23T14:39:06;15.40;;;6.85;;
70199;SDS011;57587;55.688;37.600;2023-02-23T14:41:54;22.80;;;7.90;;
70199;SDS011;57587;55.688;37.600;2023-02-23T14:44:29;13.70;;;6.38;;
70199;SDS011;57587;55.688;37.600;2023-02-23T14:49:34;17.30;;;6.33;;
70199;SDS011;57587;55.688;37.600;2023-02-23T14:52:07;13.95;;;5.63;;
70199;SDS011;57587;55.688;37.600;2023-02-23T14:54:49;12.05;;;6.20;;
70199;SDS011;57587;55.688;37.600;2023-02-23T14:57:24;11.32;;;5.82;;
70199;SDS011;57587;55.688;37.600;2023-02-23T14:59:59;13.23;;;5.97;;
70199;SDS011;57587;55.688;37.600;2023-02-23T15:02:32;12.10;;;5.80;;
70199;SDS011;57587;55.688;37.600;2023-02-23T15:05:14;12.98;;;6.80;;
70199;SDS011;57587;55.688;37.600;2023-02-23T15:07:41;12.60;;;6.00;;
70199;SDS011;57587;55.688;37.600;2023-02-23T15:10:16;15.23;;;6.20;;
70199;SDS011;57587;55.688;37.600;2023-02-23T15:12:48;13.70;;;5.70;;
70199;SDS011;57587;55.688;37.600;2023-02-23T15:15:19;11.77;;;5.47;;
70199;SDS011;57587;55.688;37.600;2023-02-23T15:17:51;13.48;;;6.45;;
70199;SDS011;57587;55.688;37.600;2023-02-23T15:20:22;14.32;;;6.15;;
70199;SDS011;57587;55.688;37.600;2023-02-23T15:22:54;12.43;;;6.97;;
70199;SDS011;57587;55.688;37.600;2023-02-23T15:25:32;12.32;;;6.13;;
70199;SDS011;57587;55.688;37.600;2023-02-23T15:30:55;11.52;;;5.85;;
70199;SDS011;57587;55.688;37.600;2023-02-23T15:33:26;13.88;;;7.22;;
70199;SDS011;57587;55.688;37.600;2023-02-23T15:36:12;14.57;;;6.20;;
70199;SDS011;57587;55.688;37.600;2023-02-23T15:38:46;16.45;;;6.60;;
70199;SDS011;57587;55.688;37.600;2023-02-23T15:41:24;12.23;;;6.37;;
70199;SDS011;57587;55.688;37.600;2023-02-23T15:44:21;12.98;;;6.53;;
70199;SDS011;57587;55.688;37.600;2023-02-23T15:46:58;15.10;;;7.18;;
70199;SDS011;57587;55.688;37.600;2023-02-23T15:49:29;11.52;;;6.05;;
70199;SDS011;57587;55.688;37.600;2023-02-23T15:52:02;13.88;;;5.63;;
70199;SDS011;57587;55.688;37.600;2023-02-23T15:54:46;10.80;;;5.43;;
70199;SDS011;57587;55.688;37.600;2023-02-23T15:57:28;10.90;;;6.32;;
70199;SDS011;57587;55.688;37.600;2023-02-23T15:59:57;14.77;;;6.25;;
70199;SDS011;57587;55.688;37.600;2023-02-23T16:02:29;14.90;;;6.15;;
70199;SDS011;57587;55.688;37.600;2023-02-23T16:04:56;15.93;;;6.20;;
70199;SDS011;57587;55.688;37.600;2023-02-23T16:07:35;13.07;;;6.13;;
70199;SDS011;57587;55.688;37.600;2023-02-23T16:12:51;12.75;;;6.55;;
70199;SDS011;57587;55.688;37.600;2023-02-23T16:15:27;16.08;;;6.75;;
70199;SDS011;57587;55.688;37.600;2023-02-23T16:18:00;12.07;;;5.88;;
70199;SDS011;57587;55.688;37.600;2023-02-23T16:23:54;10.43;;;6.05;;
70199;SDS011;57587;55.688;37.600;2023-02-23T16:26:21;11.25;;;6.10;;
70199;SDS011;57587;55.688;37.600;2023-02-23T16:28:53;12.77;;;6.65;;
70199;SDS011;57587;55.688;37.600;2023-02-23T16:31:24;16.25;;;6.47;;
70199;SDS011;57587;55.688;37.600;2023-02-23T16:36:59;13.70;;;6.07;;
70199;SDS011;57587;55.688;37.600;2023-02-23T16:39:30;12.68;;;6.45;;
70199;SDS011;57587;55.688;37.600;2023-02-23T16:41:59;15.57;;;6.40;;
70199;SDS011;57587;55.688;37.600;2023-02-23T16:44:27;12.05;;;6.45;;
70199;SDS011;57587;55.688;37.600;2023-02-23T16:47:09;14.43;;;6.33;;
70199;SDS011;57587;55.688;37.600;2023-02-23T16:49:46;13.07;;;6.85;;
70199;SDS011;57587;55.688;37.600;2023-02-23T16:52:17;13.35;;;6.30;;
70199;SDS011;57587;55.688;37.600;2023-02-23T16:54:48;17.20;;;6.32;;
70199;SDS011;57587;55.688;37.600;2023-02-23T16:57:24;17.27;;;7.18;;
70199;SDS011;57587;55.688;37.600;2023-02-23T16:59:55;15.70;;;6.77;;
70199;SDS011;57587;55.688;37.600;2023-02-23T17:02:23;12.15;;;5.80;;
70199;SDS011;57587;55.688;37.600;2023-02-23T17:04:50;16.30;;;7.10;;
70199;SDS011;57587;55.688;37.600;2023-02-23T17:07:19;13.82;;;6.80;;
70199;SDS011;57587;55.688;37.600;2023-02-23T17:09:49;14.85;;;6.30;;
70199;SDS011;57587;55.688;37.600;2023-02-23T17:12:16;16.27;;;7.23;;
70199;SDS011;57587;55.688;37.600;2023-02-23T17:14:46;14.75;;;7.55;;
70199;SDS011;57587;55.688;37.600;2023-02-23T17:17:16;15.20;;;7.20;;
70199;SDS011;57587;55.688;37.600;2023-02-23T17:19:44;15.77;;;7.50;;
70199;SDS011;57587;55.688;37.600;2023-02-23T17:22:12;17.80;;;7.05;;
70199;SDS011;57587;55.688;37.600;2023-02-23T17:24:40;14.37;;;7.03;;
70199;SDS011;57587;55.688;37.600;2023-02-23T17:27:08;14.43;;;6.63;;
70199;SDS011;57587;55.688;37.600;2023-02-23T17:29:35;16.38;;;7.55;;
70199;SDS011;57587;55.688;37.600;2023-02-23T17:32:09;17.63;;;7.32;;
70199;SDS011;57587;55.688;37.600;2023-02-23T17:34:37;19.40;;;7.60;;